createdAt,value
2022-08-09T00:00:23.389Z,1.90
2022-08-09T00:02:52.582Z,1.52
2022-08-09T00:06:19.039Z,1.48
2022-08-09T00:08:31.440Z,1.35
2022-08-09T00:11:00.874Z,1.20
2022-08-09T00:13:34.461Z,1.00
2022-08-09T00:16:06.634Z,1.85
2022-08-09T00:18:36.158Z,1.48
2022-08-09T00:21:08.506Z,1.83
2022-08-09T00:23:57.031Z,1.50
2022-08-09T00:26:30.102Z,1.73
2022-08-09T00:29:02.106Z,1.55
2022-08-09T00:31:59.630Z,1.60
2022-08-09T00:34:19.869Z,1.42
2022-08-09T00:36:49.164Z,1.92
2022-08-09T00:40:09.447Z,1.98
2022-08-09T00:44:13.637Z,1.60
2022-08-09T00:44:56.569Z,1.58
2022-08-09T00:47:25.536Z,1.92
2022-08-09T00:49:56.541Z,2.03
2022-08-09T00:52:30.640Z,1.77
2022-08-09T00:55:02.234Z,1.88
2022-08-09T00:57:34.300Z,2.30
2022-08-09T01:00:22.128Z,2.13
2022-08-09T01:02:55.266Z,2.45
2022-08-09T01:05:53.150Z,2.60
2022-08-09T01:08:30.556Z,1.77
2022-08-09T01:11:16.875Z,1.73
2022-08-09T01:13:59.041Z,2.08
2022-08-09T01:16:33.318Z,2.25
2022-08-09T01:19:17.154Z,2.17
2022-08-09T01:22:22.526Z,1.80
2022-08-09T01:25:02.004Z,2.40
2022-08-09T01:27:34.886Z,1.95
2022-08-09T01:30:08.144Z,2.08
2022-08-09T01:32:38.918Z,2.10
2022-08-09T01:35:28.471Z,2.00
2022-08-09T01:38:10.550Z,2.35
2022-08-09T01:40:52.901Z,2.88
2022-08-09T01:43:51.137Z,2.10
2022-08-09T01:46:24.910Z,2.63
2022-08-09T01:48:56.987Z,2.73
2022-08-09T01:51:27.107Z,2.88
2022-08-09T01:54:02.397Z,2.83
2022-08-09T01:56:34.791Z,2.80
2022-08-09T01:59:10.472Z,3.88
2022-08-09T02:01:57.859Z,3.10
2022-08-09T02:04:28.319Z,2.80
2022-08-09T02:07:18.383Z,3.20
2022-08-09T02:10:06.242Z,2.92
2022-08-09T02:12:36.806Z,3.13
2022-08-09T02:15:15.348Z,3.25
2022-08-09T02:18:01.469Z,3.17
2022-08-09T02:20:39.613Z,3.30
2022-08-09T02:23:13.695Z,3.03
2022-08-09T02:25:55.716Z,3.08
2022-08-09T02:28:29.298Z,3.50
2022-08-09T02:31:05.994Z,3.97
2022-08-09T02:34:06.505Z,4.00
2022-08-09T02:36:32.193Z,3.60
2022-08-09T02:39:06.115Z,4.15
2022-08-09T02:41:39.516Z,4.15
2022-08-09T02:44:25.578Z,3.63
2022-08-09T02:47:04.486Z,4.22
2022-08-09T02:49:38.866Z,3.80
2022-08-09T02:52:13.485Z,3.83
2022-08-09T02:54:54.453Z,3.80
2022-08-09T02:57:27.171Z,4.72
2022-08-09T03:00:21.098Z,4.47
2022-08-09T03:03:00.487Z,3.85
2022-08-09T03:05:34.608Z,4.10
2022-08-09T03:08:05.453Z,4.22
2022-08-09T03:10:36.176Z,4.18
2022-08-09T03:13:08.634Z,4.47
2022-08-09T03:16:04.562Z,3.90
2022-08-09T03:18:31.346Z,4.55
2022-08-09T03:21:01.864Z,4.18
2022-08-09T03:23:30.552Z,3.53
2022-08-09T03:26:04.720Z,4.43
2022-08-09T03:28:35.471Z,4.43
2022-08-09T03:31:09.870Z,4.45
2022-08-09T03:33:53.618Z,4.15
2022-08-09T03:36:27.310Z,4.10
2022-08-09T03:38:57.080Z,3.53
2022-08-09T03:41:29.632Z,4.20
2022-08-09T03:44:07.649Z,3.78
2022-08-09T03:46:46.894Z,3.83
2022-08-09T03:49:21.346Z,4.32
2022-08-09T03:52:00.347Z,4.40
2022-08-09T03:54:34.940Z,4.88
2022-08-09T03:57:20.619Z,3.95
2022-08-09T03:59:53.371Z,3.88
2022-08-09T04:02:26.597Z,3.77
2022-08-09T04:04:59.255Z,3.60
2022-08-09T04:07:47.309Z,3.80
2022-08-09T04:10:20.640Z,3.80
2022-08-09T04:12:53.269Z,4.07
2022-08-09T04:15:39.051Z,4.20
2022-08-09T04:18:16.590Z,3.85
2022-08-09T04:20:48.358Z,4.10
2022-08-09T04:23:17.376Z,4.80
2022-08-09T04:25:49.852Z,3.97
2022-08-09T04:28:31.433Z,4.60
2022-08-09T04:31:07.718Z,4.50
2022-08-09T04:33:52.653Z,4.10
2022-08-09T04:36:28.579Z,4.47
2022-08-09T04:38:59.362Z,4.28
2022-08-09T04:41:32.374Z,4.45
2022-08-09T04:44:05.693Z,4.30
2022-08-09T04:46:57.089Z,4.80
2022-08-09T04:49:52.080Z,5.20
2022-08-09T04:52:18.710Z,4.00
2022-08-09T04:54:53.556Z,4.35
2022-08-09T04:57:24.136Z,5.43
2022-08-09T04:59:55.146Z,4.60
2022-08-09T05:02:24.497Z,4.40
2022-08-09T05:04:56.151Z,4.43
2022-08-09T05:07:29.230Z,5.07
2022-08-09T05:10:02.157Z,5.25
2022-08-09T05:12:33.135Z,5.22
2022-08-09T05:15:11.805Z,5.50
2022-08-09T05:18:42.765Z,5.45
2022-08-09T05:20:40.374Z,5.57
2022-08-09T05:23:53.908Z,5.55
2022-08-09T05:25:58.734Z,5.28
2022-08-09T05:28:27.535Z,5.32
2022-08-09T05:30:55.505Z,5.63
2022-08-09T05:33:26.563Z,5.40
2022-08-09T05:36:01.502Z,6.07
2022-08-09T05:38:31.197Z,6.05
2022-08-09T05:40:59.469Z,5.85
2022-08-09T05:43:28.972Z,5.93
2022-08-09T05:46:00.320Z,5.93
2022-08-09T05:48:33.315Z,7.07
2022-08-09T05:51:42.405Z,6.13
2022-08-09T05:53:57.628Z,5.80
2022-08-09T05:56:27.329Z,6.20
2022-08-09T05:58:58.990Z,6.38
2022-08-09T06:01:34.092Z,6.53
2022-08-09T06:04:12.197Z,6.35
2022-08-09T06:06:45.203Z,6.55
2022-08-09T06:09:40.417Z,6.60
2022-08-09T06:12:06.218Z,7.50
2022-08-09T06:14:36.466Z,6.32
2022-08-09T06:17:09.435Z,5.35
2022-08-09T06:19:39.705Z,5.80
2022-08-09T06:22:15.179Z,6.78
2022-08-09T06:24:48.994Z,6.60
2022-08-09T06:27:18.712Z,5.47
2022-08-09T06:30:04.512Z,6.38
2022-08-09T06:33:00.680Z,5.55
2022-08-09T06:35:56.282Z,5.32
2022-08-09T06:38:15.901Z,6.55
2022-08-09T06:40:46.081Z,6.63
2022-08-09T06:43:14.880Z,6.20
2022-08-09T06:46:10.713Z,5.80
2022-08-09T06:48:31.445Z,6.28
2022-08-09T06:51:00.487Z,5.13
2022-08-09T06:53:38.209Z,6.55
2022-08-09T06:56:09.181Z,5.45
2022-08-09T07:00:47.692Z,6.20
2022-08-09T07:01:27.641Z,5.40
2022-08-09T07:04:04.476Z,6.60
2022-08-09T07:06:33.142Z,5.00
2022-08-09T07:09:02.688Z,4.57
2022-08-09T07:11:34.250Z,4.88
2022-08-09T07:14:26.491Z,4.57
2022-08-09T07:16:58.293Z,4.53
2022-08-09T07:19:27.370Z,4.53
2022-08-09T07:21:59.846Z,4.85
2022-08-09T07:24:32.425Z,5.30
2022-08-09T07:27:27.311Z,4.80
2022-08-09T07:30:00.339Z,5.20
2022-08-09T07:32:33.035Z,5.00
2022-08-09T07:35:08.256Z,4.38
2022-08-09T07:37:43.650Z,4.93
2022-08-09T07:40:17.261Z,4.43
2022-08-09T07:42:56.022Z,4.30
2022-08-09T07:45:40.393Z,3.85
2022-08-09T07:48:22.635Z,3.80
2022-08-09T07:51:09.601Z,4.57
2022-08-09T07:54:04.936Z,3.70
2022-08-09T07:56:37.086Z,3.10
2022-08-09T07:59:15.875Z,3.38
2022-08-09T08:01:55.978Z,3.13
2022-08-09T08:04:31.203Z,2.65
2022-08-09T08:07:09.368Z,3.15
2022-08-09T08:10:05.857Z,2.35
2022-08-09T08:12:42.352Z,2.63
2022-08-09T08:15:16.676Z,2.63
2022-08-09T08:17:54.751Z,2.25
2022-08-09T08:20:28.728Z,2.15
2022-08-09T08:23:01.597Z,1.92
2022-08-09T08:25:44.729Z,2.70
2022-08-09T08:28:18.141Z,2.83
2022-08-09T08:30:56.502Z,2.70
2022-08-09T08:33:25.184Z,2.40
2022-08-09T08:35:59.846Z,2.00
2022-08-09T08:38:30.707Z,2.15
2022-08-09T08:41:01.807Z,2.30
2022-08-09T08:43:36.278Z,2.00
2022-08-09T08:46:31.934Z,2.38
2022-08-09T08:49:02.751Z,1.60
2022-08-09T08:51:38.810Z,2.08
2022-08-09T08:54:29.973Z,1.85
2022-08-09T08:57:00.172Z,1.83
2022-08-09T08:59:46.685Z,1.80
2022-08-09T09:02:31.037Z,1.58
2022-08-09T09:05:03.109Z,1.73
2022-08-09T09:07:36.747Z,1.55
2022-08-09T09:10:10.834Z,1.40
2022-08-09T09:12:41.431Z,1.50
2022-08-09T09:15:12.098Z,1.30
2022-08-09T09:17:51.670Z,1.77
2022-08-09T09:20:22.707Z,1.60
2022-08-09T09:22:56.448Z,1.55
2022-08-09T09:26:03.209Z,1.60
2022-08-09T09:29:01.669Z,1.40
2022-08-09T09:32:04.345Z,1.80
2022-08-09T09:34:18.308Z,1.50
2022-08-09T09:36:54.222Z,2.20
2022-08-09T09:39:42.737Z,2.28
2022-08-09T09:42:25.808Z,2.08
2022-08-09T09:45:00.456Z,1.58
2022-08-09T09:47:32.501Z,1.20
2022-08-09T09:50:14.832Z,1.70
2022-08-09T09:52:54.765Z,2.42
2022-08-09T09:55:31.896Z,1.42
2022-08-09T09:58:12.500Z,2.45
2022-08-09T10:00:52.530Z,2.13
2022-08-09T10:03:58.084Z,2.65
2022-08-09T10:06:42.580Z,1.95
2022-08-09T10:09:22.171Z,1.40
2022-08-09T10:12:12.354Z,1.80
2022-08-09T10:14:48.990Z,1.77
2022-08-09T10:17:39.671Z,1.70
2022-08-09T10:20:27.151Z,2.22
2022-08-09T10:23:17.453Z,2.33
2022-08-09T10:26:07.185Z,1.90
2022-08-09T10:28:39.872Z,2.20
2022-08-09T10:34:10.506Z,2.05
2022-08-09T10:36:50.856Z,1.60
2022-08-09T10:39:28.462Z,1.67
2022-08-09T10:41:57.647Z,1.48
2022-08-09T10:44:30.586Z,2.13
2022-08-09T10:48:19.524Z,2.03
2022-08-09T10:50:31.429Z,2.05
2022-08-09T10:53:13.900Z,2.25
2022-08-09T10:55:58.269Z,2.15
2022-08-09T10:58:33.927Z,1.88
2022-08-09T11:03:06.627Z,1.52
2022-08-09T11:04:19.434Z,2.65
2022-08-09T11:07:57.868Z,1.65
2022-08-09T11:10:39.359Z,1.17
2022-08-09T11:13:50.296Z,1.20
2022-08-09T11:16:39.031Z,1.20
2022-08-09T11:19:10.374Z,1.83
2022-08-09T11:22:10.491Z,1.77
2022-08-09T11:25:09.001Z,1.50
2022-08-09T11:28:03.535Z,1.60
2022-08-09T11:30:38.389Z,1.30
2022-08-09T11:33:13.581Z,2.05
2022-08-09T11:35:50.280Z,1.75
2022-08-09T11:38:32.558Z,1.52
2022-08-09T11:41:38.526Z,1.30
2022-08-09T11:44:10.481Z,2.40
2022-08-09T11:47:01.111Z,2.10
2022-08-09T11:50:53.983Z,2.05
2022-08-09T11:53:28.042Z,1.50
2022-08-09T11:56:42.391Z,1.92
2022-08-09T11:59:30.317Z,1.52
2022-08-09T12:04:54.598Z,1.48
2022-08-09T12:10:14.443Z,1.92
2022-08-09T12:13:03.630Z,1.52
2022-08-09T12:15:52.563Z,1.45
2022-08-09T12:18:29.546Z,1.40
2022-08-09T12:21:00.400Z,2.15
2022-08-09T12:23:57.939Z,1.70
2022-08-09T12:26:25.636Z,1.90
2022-08-09T12:29:10.223Z,1.70
2022-08-09T12:31:58.943Z,1.70
2022-08-09T12:34:37.728Z,1.77
2022-08-09T12:37:21.466Z,1.50
2022-08-09T12:40:08.003Z,1.50
2022-08-09T12:42:37.506Z,1.73
2022-08-09T12:45:33.485Z,1.30
2022-08-09T12:47:58.393Z,1.25
2022-08-09T12:50:28.896Z,0.98
2022-08-09T12:53:08.089Z,1.27
2022-08-09T12:56:14.738Z,1.38
2022-08-09T12:58:28.692Z,1.27
2022-08-09T13:00:58.233Z,1.58
2022-08-09T13:03:57.366Z,1.40
2022-08-09T13:06:34.274Z,1.27
2022-08-09T13:09:11.264Z,1.67
2022-08-09T13:11:44.377Z,1.50
2022-08-09T13:14:42.486Z,1.30
2022-08-09T13:17:08.696Z,1.38
2022-08-09T13:20:09.336Z,1.20
2022-08-09T13:22:35.429Z,1.25
2022-08-09T13:25:14.655Z,1.42
2022-08-09T13:27:54.536Z,1.35
2022-08-09T13:30:51.049Z,1.45
2022-08-09T13:33:23.169Z,1.30
2022-08-09T13:36:41.769Z,0.82
2022-08-09T13:38:56.734Z,1.42
2022-08-09T13:41:57.273Z,1.30
2022-08-09T13:44:17.605Z,0.98
2022-08-09T13:47:26.758Z,1.25
2022-08-09T13:49:43.650Z,1.20
2022-08-09T13:52:25.815Z,0.90
2022-08-09T13:55:00.197Z,1.00
2022-08-09T13:57:39.567Z,1.20
2022-08-09T14:00:13.026Z,1.20
2022-08-09T14:03:03.761Z,0.82
2022-08-09T14:05:59.480Z,1.33
2022-08-09T14:08:27.065Z,1.23
2022-08-09T14:11:00.258Z,0.60
2022-08-09T14:14:16.305Z,0.95
2022-08-09T14:16:28.465Z,0.82
2022-08-09T14:18:59.561Z,0.70
2022-08-09T14:21:29.497Z,0.95
2022-08-09T14:24:10.372Z,0.95
2022-08-09T14:26:51.355Z,0.63
2022-08-09T14:30:04.393Z,0.70
2022-08-09T14:32:13.363Z,1.05
2022-08-09T14:34:55.576Z,0.88
2022-08-09T14:37:28.589Z,0.95
2022-08-09T14:40:11.152Z,1.05
2022-08-09T14:42:42.827Z,0.93
2022-08-09T14:47:00.903Z,0.77
2022-08-09T14:48:03.677Z,0.77
2022-08-09T14:50:34.668Z,0.70
2022-08-09T14:53:11.696Z,1.00
2022-08-09T14:55:49.894Z,0.90
2022-08-09T14:58:20.824Z,0.80
2022-08-09T15:00:52.102Z,1.02
2022-08-09T15:03:21.284Z,0.80
2022-08-09T15:05:55.586Z,0.77
2022-08-09T15:08:26.597Z,0.80
2022-08-09T15:11:00.407Z,0.60
2022-08-09T15:13:48.663Z,1.00
2022-08-09T15:16:22.518Z,0.90
2022-08-09T15:18:52.376Z,0.60
2022-08-09T15:21:54.798Z,0.90
2022-08-09T15:24:15.272Z,0.80
2022-08-09T15:26:47.375Z,0.85
2022-08-09T15:30:59.159Z,0.80
2022-08-09T15:32:28.415Z,1.00
2022-08-09T15:35:00.459Z,0.60
2022-08-09T15:37:56.956Z,0.43
2022-08-09T15:40:32.047Z,0.68
2022-08-09T15:43:01.897Z,0.65
2022-08-09T15:46:07.338Z,0.98
2022-08-09T15:48:29.308Z,0.85
2022-08-09T15:51:01.184Z,0.98
2022-08-09T15:54:05.478Z,0.88
2022-08-09T15:56:23.338Z,0.68
2022-08-09T15:59:00.483Z,0.52
2022-08-09T16:01:35.489Z,1.00
2022-08-09T16:04:13.486Z,0.70
2022-08-09T16:06:50.405Z,0.85
2022-08-09T16:09:18.961Z,0.88
2022-08-09T16:12:01.685Z,0.65
2022-08-09T16:14:31.651Z,0.60
2022-08-09T16:17:02.533Z,0.60
2022-08-09T16:19:36.894Z,1.23
2022-08-09T16:22:18.372Z,0.82
2022-08-09T16:24:57.018Z,0.70
2022-08-09T16:27:29.725Z,0.80
2022-08-09T16:30:01.174Z,1.25
2022-08-09T16:32:46.168Z,0.80
2022-08-09T16:35:55.906Z,0.80
2022-08-09T16:38:11.208Z,0.60
2022-08-09T16:40:41.306Z,0.50
2022-08-09T16:43:09.883Z,0.73
2022-08-09T16:45:43.907Z,0.73
2022-08-09T16:48:40.666Z,0.70
2022-08-09T16:51:08.010Z,1.02
2022-08-09T16:54:02.504Z,1.10
2022-08-09T16:56:31.041Z,1.00
2022-08-09T16:58:59.575Z,0.82
2022-08-09T17:01:33.838Z,1.00
2022-08-09T17:04:05.452Z,0.70
2022-08-09T17:08:41.606Z,0.60
2022-08-09T17:09:46.255Z,0.73
2022-08-09T17:12:11.455Z,1.05
2022-08-09T17:14:39.895Z,1.55
2022-08-09T17:17:27.207Z,1.00
2022-08-09T17:20:32.362Z,0.80
2022-08-09T17:22:51.805Z,0.80
2022-08-09T17:25:23.644Z,0.80
2022-08-09T17:27:53.809Z,0.77
2022-08-09T17:30:26.092Z,0.65
2022-08-09T17:33:00.757Z,0.88
2022-08-09T17:35:41.286Z,1.00
2022-08-09T17:38:30.512Z,0.98
2022-08-09T17:41:00.081Z,1.00
2022-08-09T17:43:34.292Z,1.05
2022-08-09T17:46:06.798Z,0.80
2022-08-09T17:48:38.912Z,0.95
2022-08-09T17:51:19.312Z,0.90
2022-08-09T17:53:53.351Z,0.73
2022-08-09T17:59:09.348Z,1.30
2022-08-09T18:02:03.314Z,0.90
2022-08-09T18:04:28.075Z,1.25
2022-08-09T18:07:04.771Z,1.20
2022-08-09T18:09:41.874Z,1.50
2022-08-09T18:12:17.217Z,1.07
2022-08-09T18:14:54.199Z,1.42
2022-08-09T18:17:26.905Z,0.85
2022-08-09T18:20:59.397Z,1.23
2022-08-09T18:22:56.638Z,0.90
2022-08-09T18:25:51.261Z,1.15
2022-08-09T18:30:33.863Z,1.52
2022-08-09T18:31:04.243Z,0.80
2022-08-09T18:33:34.284Z,0.95
2022-08-09T18:36:02.414Z,1.67
2022-08-09T18:38:31.830Z,1.42
2022-08-09T18:41:00.967Z,1.40
2022-08-09T18:43:35.206Z,2.20
2022-08-09T18:46:49.398Z,1.85
2022-08-09T18:48:51.973Z,1.42
2022-08-09T18:51:37.985Z,1.90
2022-08-09T18:54:20.087Z,1.10
2022-08-09T18:57:06.310Z,1.30
2022-08-09T18:59:49.133Z,1.30
2022-08-09T19:02:20.403Z,1.23
2022-08-09T19:05:03.283Z,1.38
2022-08-09T19:07:33.627Z,1.13
2022-08-09T19:10:16.699Z,0.88
2022-08-09T19:12:50.922Z,1.00
2022-08-09T19:15:33.756Z,1.23
2022-08-09T19:18:02.443Z,1.17
2022-08-09T19:20:39.153Z,0.82
2022-08-09T19:23:08.680Z,1.27
2022-08-09T19:26:01.869Z,1.10
2022-08-09T19:28:34.246Z,0.98
2022-08-09T19:31:07.574Z,0.93
2022-08-09T19:33:36.061Z,1.08
2022-08-09T19:36:04.491Z,0.85
2022-08-09T19:38:35.272Z,0.80
2022-08-09T19:41:09.659Z,1.10
2022-08-09T19:44:00.859Z,1.00
2022-08-09T19:46:35.801Z,1.35
2022-08-09T19:50:06.931Z,1.17
2022-08-09T19:52:04.384Z,1.08
2022-08-09T19:54:32.715Z,1.30
2022-08-09T19:57:02.307Z,1.02
2022-08-09T19:59:57.486Z,1.20
2022-08-09T20:04:26.144Z,1.20
2022-08-09T20:05:14.867Z,1.00
2022-08-09T20:07:58.741Z,0.95
2022-08-09T20:10:34.366Z,1.80
2022-08-09T20:13:08.367Z,1.23
2022-08-09T20:16:36.655Z,1.08
2022-08-09T20:18:27.554Z,1.13
2022-08-09T20:20:57.389Z,1.40
2022-08-09T20:23:39.347Z,1.35
2022-08-09T20:26:12.929Z,1.60
2022-08-09T20:28:48.469Z,1.30
2022-08-09T20:31:18.602Z,1.50
2022-08-09T20:33:52.322Z,1.88
2022-08-09T20:36:27.310Z,2.20
2022-08-09T20:39:29.009Z,1.30
2022-08-09T20:41:44.508Z,1.13
2022-08-09T20:44:26.974Z,1.40
2022-08-09T20:46:57.930Z,1.10
2022-08-09T20:49:27.492Z,1.00
2022-08-09T20:51:56.666Z,1.30
2022-08-09T20:54:25.922Z,1.40
2022-08-09T20:56:57.124Z,1.20
2022-08-09T21:00:20.670Z,1.05
2022-08-09T21:02:18.411Z,1.15
2022-08-09T21:05:53.118Z,0.88
2022-08-09T21:07:40.165Z,1.08
2022-08-09T21:10:11.571Z,1.20
2022-08-09T21:12:39.860Z,1.10
2022-08-09T21:15:12.346Z,1.10
2022-08-09T21:18:11.713Z,1.30
2022-08-09T21:20:31.028Z,1.00
2022-08-09T21:22:59.659Z,1.30
2022-08-09T21:26:01.850Z,0.82
2022-08-09T21:28:34.360Z,1.05
2022-08-09T21:31:16.529Z,1.02
2022-08-09T21:33:50.410Z,1.52
2022-08-09T21:36:23.097Z,1.70
2022-08-09T21:38:57.366Z,0.90
2022-08-09T21:42:04.514Z,1.23
2022-08-09T21:44:32.982Z,24.08
2022-08-09T21:47:07.722Z,5.13
2022-08-09T21:49:40.054Z,1.92
2022-08-09T21:52:14.956Z,2.40
2022-08-09T21:54:50.915Z,1.20
2022-08-09T21:57:39.340Z,1.13
2022-08-09T22:00:25.677Z,0.90
2022-08-09T22:02:58.876Z,1.20
2022-08-09T22:05:35.692Z,1.27
2022-08-09T22:08:11.884Z,0.80
2022-08-09T22:11:00.294Z,0.80
2022-08-09T22:13:34.914Z,1.00
2022-08-09T22:16:07.562Z,1.23
2022-08-09T22:18:38.597Z,0.80
2022-08-09T22:21:24.122Z,1.13
2022-08-09T22:24:00.071Z,1.02
2022-08-09T22:26:35.164Z,1.30
2022-08-09T22:29:09.177Z,1.33
2022-08-09T22:31:44.133Z,0.98
2022-08-09T22:34:20.487Z,1.00
2022-08-09T22:36:53.612Z,1.00
2022-08-09T22:39:57.482Z,0.93
2022-08-09T22:42:22.242Z,0.85
2022-08-09T22:45:00.251Z,0.95
2022-08-09T22:48:11.473Z,1.27
2022-08-09T22:50:31.060Z,0.80
2022-08-09T22:52:59.399Z,0.98
2022-08-09T22:55:39.489Z,0.82
2022-08-09T22:58:30.585Z,0.90
2022-08-09T23:01:01.023Z,1.45
2022-08-09T23:04:02.356Z,1.38
2022-08-09T23:06:34.697Z,1.25
2022-08-09T23:09:04.952Z,0.88
2022-08-09T23:11:33.366Z,1.00
2022-08-09T23:14:02.983Z,1.20
2022-08-09T23:16:31.330Z,1.20
2022-08-09T23:18:59.763Z,0.93
2022-08-09T23:21:33.515Z,1.08
2022-08-09T23:24:07.245Z,0.90
2022-08-09T23:26:36.132Z,1.02
2022-08-09T23:29:05.174Z,1.00
2022-08-09T23:31:33.861Z,1.20
2022-08-09T23:34:02.569Z,0.90
2022-08-09T23:36:34.100Z,1.27
2022-08-09T23:39:02.309Z,1.05
2022-08-09T23:41:30.504Z,1.17
2022-08-09T23:44:00.163Z,1.25
2022-08-09T23:46:29.190Z,1.35
2022-08-09T23:48:57.631Z,0.98
2022-08-09T23:51:27.513Z,1.30
2022-08-09T23:54:02.445Z,1.00
2022-08-09T23:56:52.541Z,1.00
2022-08-09T23:59:20.976Z,1.00
